M I D A S
Marine Information and Data Acquisition System
Tripno 527 of the Zeeleeuw from 2003-06-30 06:33:44 to 2003-06-30 15:02:40
Back to CruiseResearch ActivitiesStationsMapUnderway DataData graphs

EquipmentUnitsComment
TimeDGPSUTC
LatitudeDGPSDM.mWGS84
LongitudeDGPSDM.mWGS84
TemperatureSBE03/SBE38deg celciusITS90
ConductivitySBE21S/mITS90
SalinitySBE21 Practical Salinity Units
ChlorophylAChelsea fluorimeterg/lCalibrated in Aceton
Missing or incorrect values are displayed as -999
Sea surface data collected by the RV Zeeleeuw from 2003-06-30 06:33:44 to 2003-06-30 15:02:40
Time Latitude Longitude Temperature Conductivity Salinity ChlorophylA
2003-06-30 06:34:46 51°13.59 2°56.12 21.971284 0.06175 0.301083 -0.71383
2003-06-30 06:35:48 51°13.59 2°56.12 21.976636 0.065805 0.321416 -0.71383
2003-06-30 06:36:46 51°13.59 2°56.12 21.984388 0.064973 0.317252 -0.74754
2003-06-30 06:37:46 51°13.6 2°56.1 21.988755 0.064869 0.316758 -0.71383
2003-06-30 06:38:48 51°13.61 2°56.05 21.994932 0.06279 0.306358 -0.74754
2003-06-30 06:39:48 51°13.64 2°55.94 21.998591 0.064453 0.314714 -0.74754
2003-06-30 06:40:48 51°13.66 2°55.83 43.434515 0.066221 0.323595 -0.74754
2003-06-30 06:41:46 51°13.66 2°55.77 45.82098 0.068197 0.333542 -0.71383
2003-06-30 06:42:48 51°13.69 2°55.77 45.416172 0.073812 0.361882 -0.781249
2003-06-30 06:43:48 51°13.75 2°55.72 46.116875 0.064557 0.315269 -0.74754
2003-06-30 06:44:46 51°13.84 2°55.64 45.017907 0.059879 0.2919 -0.74754
2003-06-30 06:45:46 51°13.95 2°55.56 43.199466 0.059775 0.291425 -0.74754
2003-06-30 06:46:48 51°14.1 2°55.45 43.621336 0.058111 0.283144 -0.74754
2003-06-30 06:47:48 51°14.23 2°55.31 41.239704 0.059359 0.289398 -0.74754
2003-06-30 06:48:46 51°14.33 2°55.12 40.313897 0.058735 0.286299 -0.74754
2003-06-30 06:49:46 51°14.46 2°54.91 40.649436 0.060918 0.297281 -0.74754
2003-06-30 06:50:48 51°14.6 2°54.71 39.301339 0.060399 0.294631 -0.74754
2003-06-30 06:51:46 51°14.76 2°54.59 39.118208 0.062062 0.303007 -0.74754
2003-06-30 06:52:46 51°14.95 2°54.53 41.028508 0.061438 0.299937 -0.781249
2003-06-30 06:53:52 51°15.15 2°54.48 41.077034 0.059567 0.290611 -0.74754
2003-06-30 06:54:52 51°15.34 2°54.4 42.018235 0.061958 0.302587 -0.74754
2003-06-30 06:55:52 51°15.53 2°54.38 41.929479 4.119179 27.26697 3.904358
2003-06-30 06:56:52 51°15.72 2°54.38 41.069429 4.500192 32.413921 5.859503
2003-06-30 06:57:52 51°15.91 2°54.36 40.71097 4.475719 32.366034 5.4887
2003-06-30 06:58:52 51°16.09 2°54.29 42.773742 4.487008 32.487227 5.859503
2003-06-30 06:59:52 51°16.23 2°54.23 42.210676 4.446076 32.165188 5.589828
2003-06-30 07:00:52 51°16.27 2°54.19 46.656871 4.479412 32.430073 5.657247
2003-06-30 07:01:54 51°16.27 2°54.16 42.281454 4.478885 32.417659 5.758375
2003-06-30 07:02:54 51°16.27 2°54.15 44.798306 4.462849 32.293313 5.690956
2003-06-30 07:03:54 51°16.28 2°54.14 42.799785 4.462427 32.29044 5.589828
2003-06-30 07:05:00 51°16.28 2°54.13 46.473216 4.476564 32.403214 5.522409
2003-06-30 07:06:00 51°16.28 2°54.12 45.807042 4.471711 32.365563 5.4887
2003-06-30 07:07:00 51°16.28 2°54.12 44.752927 4.475825 32.399407 5.522409
2003-06-30 07:08:00 51°16.28 2°54.12 45.436665 4.47034 32.356089 5.45499
2003-06-30 07:09:00 51°16.28 2°54.12 20.890379 4.465909 32.321314 5.623537
2003-06-30 07:10:00 51°16.28 2°54.12 20.428921 4.463905 32.308882 5.556118
2003-06-30 07:11:00 51°16.27 2°54.14 20.462215 4.465381 32.320835 5.421281
2003-06-30 07:12:00 51°16.22 2°54.2 20.696277 4.462217 32.294682 5.758375
2003-06-30 07:13:00 51°16.1 2°54.09 20.92753 4.470234 32.355777 6.02805
2003-06-30 07:14:00 51°16.13 2°53.85 20.65716 4.480889 32.443119 6.331435
2003-06-30 07:15:00 51°16.27 2°53.65 20.844732 4.482999 32.467273 5.792084
2003-06-30 07:16:00 51°16.43 2°53.41 20.557386 4.476353 32.416707 5.690956
2003-06-30 07:17:00 51°16.61 2°53.17 20.643729 4.472978 32.418161 5.724665
2003-06-30 07:18:00 51°16.79 2°52.94 20.367962 4.513068 32.814902 5.45499
2003-06-30 07:19:00 51°16.96 2°52.73 20.541165 4.555693 33.234072 5.758375
2003-06-30 07:20:00 51°17.13 2°52.51 20.49027 4.557803 33.267581 5.690956
2003-06-30 07:21:00 51°17.3 2°52.29 20.237659 4.557698 33.278517 5.960631
2003-06-30 07:22:00 51°17.48 2°52.06 20.844892 4.546831 33.172345 6.938204
2003-06-30 07:23:00 51°17.65 2°51.84 20.687462 4.522776 32.967657 7.679811
2003-06-30 07:24:00 51°17.82 2°51.62 20.499712 4.504418 32.765484 7.882067
2003-06-30 07:25:00 51°17.99 2°51.39 20.489345 4.495871 32.655283 7.983195
2003-06-30 07:26:00 51°18.16 2°51.16 20.446013 4.498509 32.684953 7.848358
2003-06-30 07:27:00 51°18.3 2°50.96 20.484202 4.495873 32.711374 7.275298
2003-06-30 07:28:00 51°18.43 2°50.83 20.371746 4.489015 32.67318 6.769657
2003-06-30 07:29:00 51°18.5 2°50.82 20.204138 4.474985 32.569407 6.60111
2003-06-30 07:30:00 51°18.54 2°50.84 20.467039 4.471609 32.577084 6.634819
2003-06-30 07:31:00 51°18.56 2°50.87 20.399877 4.467917 32.562393 6.634819
2003-06-30 07:32:00 51°18.55 2°50.89 20.173871 4.464964 32.536671 6.5674
2003-06-30 07:33:00 51°18.53 2°50.9 20.077776 4.461904 32.513388 6.264016
2003-06-30 07:34:00 51°18.51 2°50.89 20.312953 4.462537 32.511957 5.994341
2003-06-30 07:35:00 51°18.48 2°50.88 20.346544 4.46201 32.507111 6.095469
2003-06-30 07:36:00 51°18.45 2°50.86 20.544619 4.464647 32.527499 6.230306
2003-06-30 07:37:00 51°18.43 2°50.84 20.540121 4.464647 32.531894 6.331435
2003-06-30 07:38:00 51°18.39 2°50.86 20.249273 4.469183 32.567761 6.162888
2003-06-30 07:39:00 51°18.4 2°50.97 20.447299 4.467284 32.543493 6.432563
2003-06-30 07:40:00 51°18.46 2°51.18 20.34441 4.464646 32.492939 6.129178
2003-06-30 07:41:00 51°18.54 2°51.45 20.41971 4.461481 32.444208 6.095469
2003-06-30 07:42:00 51°18.63 2°51.75 20.567663 4.461269 32.407552 6.230306
2003-06-30 07:43:00 51°18.7 2°52.05 20.601815 4.458315 32.351992 5.893212
2003-06-30 07:44:00 51°18.78 2°52.35 20.182871 4.458103 32.316612 5.792084
2003-06-30 07:45:00 51°18.86 2°52.65 20.531648 4.455571 32.268473 5.758375
2003-06-30 07:46:00 51°18.94 2°52.95 20.205833 4.451562 32.228452 5.690956
2003-06-30 07:47:00 51°19.03 2°53.25 20.530202 4.44787 32.19749 5.690956
2003-06-30 07:48:00 51°19.11 2°53.55 20.556423 4.437004 32.113344 5.859503
2003-06-30 07:49:00 51°19.19 2°53.86 20.487939 4.43173 32.073901 5.792084
2003-06-30 07:50:00 51°19.27 2°54.16 20.738936 4.426456 32.034459 5.556118
2003-06-30 07:51:00 51°19.35 2°54.46 20.554134 4.423502 32.020769 5.387571
2003-06-30 07:52:00 51°19.42 2°54.77 20.451199 4.418122 31.993881 5.286443
2003-06-30 07:53:04 51°19.51 2°55.09 20.317264 4.409895 31.963779 5.522409
2003-06-30 07:54:04 51°19.59 2°55.39 20.779329 4.403672 31.926248 5.657247
2003-06-30 07:55:04 51°19.67 2°55.69 20.372269 4.400401 31.893859 5.792084
2003-06-30 07:56:04 51°19.75 2°56 20.589737 4.399241 31.861437 6.769657
2003-06-30 07:57:04 51°19.83 2°56.3 20.629533 4.368966 31.579999 7.106751
2003-06-30 07:58:04 51°19.91 2°56.6 20.443439 4.393016 31.749778 7.477554
2003-06-30 07:59:04 51°20 2°56.89 20.673996 4.387425 31.70039 8.084324
2003-06-30 08:00:04 51°20.08 2°57.19 20.233142 4.381202 31.650159 8.792221
2003-06-30 08:01:04 51°20.14 2°57.5 20.447018 4.375928 31.619781 9.095606
2003-06-30 08:02:04 51°20.2 2°57.81 20.71098 4.376033 31.638128 9.095606
2003-06-30 08:03:04 51°20.26 2°58.13 20.245523 4.376245 31.661069 9.196734
2003-06-30 08:04:04 51°20.32 2°58.43 20.589898 4.37287 31.659826 8.724802
2003-06-30 08:05:04 51°20.38 2°58.74 20.387282 4.369389 31.642838 8.623674
2003-06-30 08:06:04 51°20.44 2°59.05 20.459884 4.367069 31.624598 8.724802
2003-06-30 08:07:04 51°20.5 2°59.36 20.429565 4.366541 31.615019 8.792221
2003-06-30 08:08:04 51°20.56 2°59.67 20.164828 4.364326 31.595513 8.927059
2003-06-30 08:09:04 51°20.62 2°59.97 20.226729 4.362427 31.581221 8.893349
2003-06-30 08:10:04 51°20.68 3°0.28 20.404182 4.36074 31.577125 8.82593
2003-06-30 08:11:04 51°20.74 3°0.59 20.59058 4.362006 31.601172 8.387708
2003-06-30 08:12:04 51°20.8 3°0.89 20.255482 4.362428 31.606712 8.522546
2003-06-30 08:13:04 51°20.87 3°1.2 20.447621 4.362217 31.613512 8.657383
2003-06-30 08:14:04 51°20.93 3°1.51 20.372994 4.362533 31.618733 8.657383
2003-06-30 08:15:04 51°21.01 3°1.81 20.234917 4.366014 31.652773 8.118033
2003-06-30 08:16:04 51°21.1 3°2.11 20.174153 4.367491 31.668996 8.084324
2003-06-30 08:17:04 51°21.18 3°2.4 20.419549 4.367386 31.66228 8.151742
2003-06-30 08:18:04 51°21.26 3°2.7 20.462818 4.366753 31.644375 8.252871
2003-06-30 08:19:04 51°21.34 3°2.99 20.294782 4.372343 31.687501 8.522546
2003-06-30 08:20:04 51°21.42 3°3.28 20.32822 4.374031 31.701698 8.421418
2003-06-30 08:21:04 51°21.5 3°3.57 20.424698 4.376351 31.718888 8.691093
2003-06-30 08:22:04 51°21.59 3°3.86 20.254878 4.375719 31.715897 8.623674
2003-06-30 08:23:04 51°21.67 3°4.16 20.312027 4.374664 31.713757 8.724802
2003-06-30 08:24:04 51°21.75 3°4.45 20.261046 4.377828 31.747398 8.421418
2003-06-30 08:25:04 51°21.82 3°4.75 20.418101 4.374559 31.732657 8.252871
2003-06-30 08:26:04 51°21.88 3°5.06 19.997981 4.377512 31.76408 8.421418
2003-06-30 08:27:04 51°21.95 3°5.37 20.319399 4.378567 31.789229 8.353999
2003-06-30 08:28:04 51°22.01 3°5.67 20.291881 4.376142 31.779728 8.455127
2003-06-30 08:29:04 51°22.08 3°5.98 20.168058 4.378568 31.82302 8.252871
2003-06-30 08:30:04 51°22.12 3°6.29 20.147669 4.378463 31.832907 8.151742
2003-06-30 08:31:04 51°22.17 3°6.6 20.131232 4.378252 31.852703 7.983195
2003-06-30 08:32:04 51°22.22 3°6.92 20.029052 4.378674 31.865285 8.050614
2003-06-30 08:33:04 51°22.26 3°7.23 20.061808 4.379835 31.873104 8.151742
2003-06-30 08:34:04 51°22.33 3°7.54 20.158692 4.38089 31.885453 8.421418
2003-06-30 08:35:04 51°22.39 3°7.86 20.357495 4.382577 31.899717 8.657383
2003-06-30 08:36:04 51°22.35 3°8.18 20.346624 4.379413 31.87075 8.758512
2003-06-30 08:37:04 51°22.36 3°8.51 20.279105 4.373822 31.807561 8.724802
2003-06-30 08:38:04 51°22.38 3°8.85 20.268423 4.368336 31.739955 8.691093
2003-06-30 08:39:04 51°22.38 3°9.18 20.192436 4.363589 31.685393 8.792221
2003-06-30 08:40:04 51°22.38 3°9.52 20.210674 4.359686 31.635603 8.960768
2003-06-30 08:41:04 51°22.39 3°9.85 20.309972 4.355889 31.595777 8.893349
2003-06-30 08:42:04 51°22.4 3°10.19 20.404142 4.35726 31.607951 8.960768
2003-06-30 08:43:04 51°22.42 3°10.53 20.416492 4.357576 31.604659 9.331571
2003-06-30 08:44:04 51°22.43 3°10.87 20.073532 4.357471 31.60274 9.095606
2003-06-30 08:45:04 51°22.44 3°11.21 20.309287 4.359581 31.628885 9.331571
2003-06-30 08:46:04 51°22.46 3°11.54 20.338087 4.362323 31.651111 10.477691
2003-06-30 08:47:04 51°22.47 3°11.87 20.301149 4.34534 31.469001 10.578819
2003-06-30 08:48:04 51°22.49 3°12.21 20.454536 4.344707 31.452247 10.848494
2003-06-30 08:49:04 51°22.5 3°12.55 20.455542 4.338484 31.409862 10.747366
2003-06-30 08:50:04 51°22.53 3°12.84 20.334302 4.337112 31.377149 10.747366
2003-06-30 08:51:04 51°22.55 3°13.04 20.456265 4.334053 31.337174 11.08446
2003-06-30 08:52:04 51°22.53 3°13.13 20.338852 4.34186 31.453546 11.050751
2003-06-30 08:53:04 51°22.52 3°13.13 20.70445 4.342176 31.4614 11.253007
2003-06-30 08:54:04 51°22.52 3°13.13 20.440705 4.342598 31.462696 11.219298
2003-06-30 08:55:04 51°22.53 3°13.14 20.267779 4.338906 31.429127 11.792358
2003-06-30 08:56:04 51°22.54 3°13.15 20.375449 4.337535 31.407468 11.623811
2003-06-30 08:57:04 51°22.56 3°13.15 20.349725 4.346501 31.500105 10.983332
2003-06-30 08:58:04 51°22.57 3°13.16 20.134786 4.357155 31.607097 10.679947
2003-06-30 08:59:04 51°22.58 3°13.15 20.201959 4.366331 31.686267 10.578819
2003-06-30 09:00:04 51°22.61 3°13.14 20.200668 4.371395 31.726246 10.241725
2003-06-30 09:01:04 51°22.63 3°13.12 20.3614 4.3715 31.725497 10.376563
2003-06-30 09:02:04 51°22.66 3°13.08 20.456587 4.363483 31.632273 9.634956
2003-06-30 09:03:04 51°22.69 3°13.06 20.364541 4.354411 31.542378 8.960768
2003-06-30 09:04:04 51°22.72 3°13.03 20.564532 4.354517 31.541109 10.174306
2003-06-30 09:05:04 51°22.75 3°13.01 20.800897 4.352091 31.517774 10.174306
2003-06-30 09:06:04 51°22.77 3°12.98 20.24024 4.349454 31.4938 9.634956
2003-06-30 09:07:04 51°22.8 3°12.96 20.560678 4.35093 31.50786 9.297862
2003-06-30 09:08:04 51°22.83 3°12.94 20.248063 4.355783 31.555064 9.466409
2003-06-30 09:09:04 51°22.86 3°12.93 20.170318 4.362639 31.621715 9.466409
2003-06-30 09:10:04 51°22.94 3°12.98 20.124284 4.366015 31.658101 9.567537
2003-06-30 09:11:04 51°23.1 3°13.12 20.335349 4.375719 31.743129 9.736084
2003-06-30 09:12:04 51°23.27 3°13.31 20.204743 4.371394 31.701144 8.657383
2003-06-30 09:13:04 51°23.43 3°13.54 20.2477 4.367175 31.66217 8.151742
2003-06-30 09:14:04 51°23.59 3°13.78 20.308441 4.360846 31.605602 8.050614
2003-06-30 09:15:04 51°23.74 3°14.03 20.47552 4.36612 31.654693 8.016905
2003-06-30 09:16:04 51°23.88 3°14.28 20.169027 4.362006 31.618187 7.848358
2003-06-30 09:17:04 51°24.03 3°14.54 20.27056 4.366436 31.660985 7.679811
2003-06-30 09:18:04 51°24.18 3°14.8 20.439418 4.367597 31.704007 7.983195
2003-06-30 09:19:04 51°24.33 3°15.06 20.319036 4.372344 31.751063 8.084324
2003-06-30 09:20:04 51°24.49 3°15.32 20.432179 4.370762 31.734482 8.151742
2003-06-30 09:21:04 51°24.65 3°15.59 20.419147 4.382155 31.856981 7.882067
2003-06-30 09:22:04 51°24.8 3°15.86 20.233909 4.368969 31.74777 7.983195
2003-06-30 09:23:04 51°24.95 3°16.14 20.280556 4.368758 31.754632 8.488836
2003-06-30 09:24:04 51°25.1 3°16.41 20.679847 4.464752 32.49599 9.736084
2003-06-30 09:25:04 51°25.25 3°16.68 20.156188 4.4676 32.519174 9.702375
2003-06-30 09:26:04 51°25.39 3°16.95 20.187674 4.470765 32.536158 9.39899
2003-06-30 09:27:04 51°25.53 3°17.22 20.246854 4.470553 32.509232 9.061896
2003-06-30 09:28:04 51°25.66 3°17.47 20.194414 4.469182 32.480027 8.893349
2003-06-30 09:29:04 51°25.75 3°17.66 20.288737 4.468549 32.471603 8.556255
2003-06-30 09:30:04 51°25.82 3°17.77 20.150778 4.46992 32.487669 7.882067
2003-06-30 09:31:04 51°25.86 3°17.8 20.115438 4.469815 32.487905 7.207879
2003-06-30 09:32:04 51°25.87 3°17.82 20.413153 4.469182 32.482761 6.837076
2003-06-30 09:33:04 51°25.86 3°17.84 20.314968 4.469287 32.483618 6.5674
2003-06-30 09:34:04 51°25.86 3°17.85 20.380038 4.469709 32.487595 6.365144
2003-06-30 09:35:04 51°25.86 3°17.87 20.3804 4.469709 32.487595 6.061759
2003-06-30 09:36:04 51°25.85 3°17.88 20.545502 4.469815 32.486812 5.859503
2003-06-30 09:37:04 51°25.85 3°17.88 20.215556 4.469076 32.481903 5.960631
2003-06-30 09:38:04 51°25.86 3°17.91 20.546144 4.469393 32.482835 5.859503
2003-06-30 09:39:04 51°25.92 3°17.84 20.153766 4.470553 32.495002 6.5674
2003-06-30 09:40:04 51°25.9 3°17.61 20.066821 4.470447 32.483755 6.668529
2003-06-30 09:41:04 51°25.79 3°17.36 20.510198 4.466122 32.438786 7.073042
2003-06-30 09:42:04 51°25.64 3°17.12 20.644972 4.465594 32.42632 7.005623
2003-06-30 09:43:04 51°25.48 3°16.86 20.277412 4.465911 32.427799 7.342717
2003-06-30 09:44:04 51°25.33 3°16.57 20.249112 4.467282 32.441663 8.455127
2003-06-30 09:45:04 51°25.19 3°16.27 20.300302 4.468654 32.457713 8.556255
2003-06-30 09:46:04 51°25.13 3°15.91 20.487376 4.470342 32.477979 8.691093
2003-06-30 09:47:04 51°25.1 3°15.55 20.417337 4.469815 32.480251 8.82593
2003-06-30 09:48:04 51°25.07 3°15.19 20.236691 4.472663 32.509964 8.623674
2003-06-30 09:49:04 51°25.04 3°14.82 20.585925 4.474351 32.53683 8.82593
2003-06-30 09:50:04 51°25.03 3°14.46 20.440302 4.476567 32.581189 8.792221
2003-06-30 09:51:04 51°25.02 3°14.1 20.43242 4.479732 32.630059 8.556255
2003-06-30 09:52:04 51°25.02 3°13.73 20.122951 4.480261 32.672953 8.185452
2003-06-30 09:53:04 51°25.02 3°13.37 20.155583 4.473721 32.686452 7.983195
2003-06-30 09:54:04 51°25.01 3°13 19.894797 4.462539 32.633788 7.949486
2003-06-30 09:55:04 51°25.04 3°12.65 19.986447 4.458847 32.610784 8.016905
2003-06-30 09:56:04 51°25.13 3°12.32 20.226568 4.455683 32.59209 8.084324
2003-06-30 09:57:04 51°25.24 3°12.01 19.9232 4.467181 32.676742 7.71352
2003-06-30 09:58:04 51°25.39 3°11.76 20.041752 4.482689 32.774179 6.702238
2003-06-30 09:59:04 51°25.56 3°11.55 20.205752 4.487541 32.783867 6.60111
2003-06-30 10:00:04 51°25.75 3°11.42 20.116811 4.486591 32.747834 6.769657
2003-06-30 10:01:04 51°25.89 3°11.24 20.314363 4.487118 32.716178 7.039332
2003-06-30 10:02:04 51°25.96 3°10.97 20.178149 4.480998 32.646983 6.971913
2003-06-30 10:03:04 51°26.03 3°10.67 20.006721 4.477095 32.589329 6.803366
2003-06-30 10:04:04 51°26.09 3°10.35 20.418946 4.469604 32.511915 6.702238
2003-06-30 10:05:04 51°26.15 3°10.02 20.307998 4.467072 32.486394 6.398853
2003-06-30 10:06:04 51°26.2 3°9.68 20.254353 4.462853 32.459188 6.129178
2003-06-30 10:07:04 51°26.26 3°9.34 20.090063 4.465068 32.500758 5.960631
2003-06-30 10:08:04 51°26.32 3°9 20.209181 4.466651 32.538337 6.264016
2003-06-30 10:09:04 51°26.39 3°8.68 20.32105 4.468129 32.587232 6.702238
2003-06-30 10:10:04 51°26.44 3°8.47 19.931706 4.47351 32.677532 6.971913
2003-06-30 10:11:04 51°26.47 3°8.35 19.892203 4.475832 32.738637 7.17417
2003-06-30 10:12:04 51°26.46 3°8.32 20.020881 4.478047 32.771772 7.376426
2003-06-30 10:13:04 51°26.46 3°8.3 19.814997 4.477731 32.781978 7.039332
2003-06-30 10:14:04 51°26.46 3°8.29 19.967827 4.477837 32.785069 7.005623
2003-06-30 10:15:04 51°26.45 3°8.28 20.269552 4.478681 32.79755 7.039332
2003-06-30 10:16:04 51°26.45 3°8.27 20.131393 4.477837 32.787853 6.904494
2003-06-30 10:17:04 51°26.44 3°8.26 20.321453 4.477098 32.790157 7.073042
2003-06-30 10:18:04 51°26.44 3°8.25 19.952361 4.478048 32.804066 7.309007
2003-06-30 10:19:04 51°26.46 3°8.24 20.076159 4.477732 32.807605 7.477554
2003-06-30 10:20:04 51°26.54 3°8.06 20.191548 4.479525 32.827883 7.780939
2003-06-30 10:21:04 51°26.64 3°7.77 20.295588 4.48058 32.854964 7.949486
2003-06-30 10:22:04 51°26.74 3°7.45 20.078382 4.477732 32.846687 8.185452
2003-06-30 10:23:04 51°26.85 3°7.14 19.842256 4.479526 32.854135 8.084324
2003-06-30 10:24:04 51°26.96 3°6.84 20.093336 4.481847 32.90902 8.219161
2003-06-30 10:25:04 51°27.08 3°6.53 19.879193 4.482375 32.951537 8.421418
2003-06-30 10:26:04 51°27.19 3°6.23 19.890744 4.484275 33.006583 8.724802
2003-06-30 10:27:04 51°27.3 3°5.92 19.73929 4.48417 33.051468 8.691093
2003-06-30 10:28:04 51°27.42 3°5.61 19.514692 4.482799 33.070728 8.960768
2003-06-30 10:29:04 51°27.53 3°5.31 19.665493 4.485859 33.120956 8.758512
2003-06-30 10:30:04 51°27.65 3°5 19.787159 4.483961 33.134824 8.219161
2003-06-30 10:31:04 51°27.76 3°4.7 19.572202 4.48375 33.143893 8.455127
2003-06-30 10:32:04 51°27.88 3°4.39 19.709878 4.482485 33.151076 8.691093
2003-06-30 10:33:04 51°27.99 3°4.08 19.703499 4.479636 33.145739 8.792221
2003-06-30 10:34:04 51°28.09 3°3.83 19.351887 4.479214 33.139395 9.601247
2003-06-30 10:35:04 51°28.16 3°3.69 19.41157 4.477949 33.158001 11.017042
2003-06-30 10:36:04 51°28.23 3°3.55 19.325417 4.473413 33.152385 12.196871
2003-06-30 10:37:04 51°28.27 3°3.46 19.427891 4.470671 33.169094 12.399127
2003-06-30 10:38:04 51°28.26 3°3.44 19.415039 4.4693 33.174316 12.668802
2003-06-30 10:39:04 51°28.26 3°3.42 19.545775 4.4693 33.185779 11.455264
2003-06-30 10:40:04 51°28.25 3°3.39 19.640037 4.467929 33.177253 11.387845
2003-06-30 10:41:04 51°28.25 3°3.37 19.806882 4.467929 33.180119 11.354136
2003-06-30 10:42:04 51°28.24 3°3.35 19.366629 4.467823 33.181536 11.556392
2003-06-30 10:43:04 51°28.24 3°3.32 19.46419 4.46719 33.181438 11.488973
2003-06-30 10:44:04 51°28.22 3°3.13 19.586165 4.466558 33.177325 12.163161
2003-06-30 10:45:04 51°28.18 3°2.78 19.38696 4.464448 33.172982 11.859777
2003-06-30 10:46:04 51°28.12 3°2.43 19.490567 4.463077 33.193157 11.792358
2003-06-30 10:47:04 51°28.05 3°2.08 19.369854 4.462233 33.200507 12.196871
2003-06-30 10:48:04 51°27.99 3°1.72 19.487387 4.461495 33.215651 12.23058
2003-06-30 10:49:04 51°27.92 3°1.36 19.308501 4.460651 33.210349 12.163161
2003-06-30 10:50:04 51°27.86 3°1 19.463293 4.458014 33.211993 12.466546
2003-06-30 10:51:04 51°27.8 3°0.64 19.335385 4.460019 33.24543 12.904768
2003-06-30 10:52:04 51°27.73 3°0.28 19.201309 4.454956 33.217047 13.34299
2003-06-30 10:53:04 51°27.66 2°59.92 19.401327 4.454007 33.241468 13.444118
2003-06-30 10:54:04 51°27.6 2°59.55 19.327909 4.452847 33.263601 13.275571
2003-06-30 10:55:04 51°27.54 2°59.19 19.310707 4.452425 33.277458 13.107024
2003-06-30 10:56:04 51°27.49 2°58.83 19.242676 4.454324 33.309587 13.241862
2003-06-30 10:57:04 51°27.43 2°58.46 19.074069 4.455485 33.317553 13.174443
2003-06-30 10:58:04 51°27.38 2°58.1 19.331423 4.456751 33.320013 12.837349
2003-06-30 10:59:04 51°27.33 2°57.73 19.327174 4.457278 33.302373 13.174443
2003-06-30 11:00:04 51°27.28 2°57.36 19.5184 4.458649 33.284859 13.140734
2003-06-30 11:01:04 51°27.23 2°56.99 19.22979 4.459808 33.253486 13.140734
2003-06-30 11:02:04 51°27.18 2°56.62 19.342901 4.463394 33.227436 12.736221
2003-06-30 11:03:04 51°27.14 2°56.25 19.376387 4.46487 33.185099 12.702512
2003-06-30 11:04:04 51°27.09 2°55.87 19.286757 4.465819 33.187826 12.938477
2003-06-30 11:05:04 51°27.05 2°55.5 19.513878 4.465292 33.208717 12.938477
2003-06-30 11:06:04 51°27 2°55.13 19.512859 4.463604 33.195247 12.80364
2003-06-30 11:07:04 51°26.96 2°54.76 19.361075 4.462655 33.177583 12.972187
2003-06-30 11:08:04 51°26.92 2°54.39 19.521578 4.46276 33.168129 12.837349
2003-06-30 11:09:04 51°26.87 2°54.02 19.533637 4.464553 33.156084 12.972187
2003-06-30 11:10:04 51°26.83 2°53.65 19.462885 4.466135 33.15147 13.107024
2003-06-30 11:11:04 51°26.79 2°53.28 19.438375 4.466768 33.156154 13.275571
2003-06-30 11:12:04 51°26.75 2°52.92 19.565688 4.462339 33.225561 14.253144
2003-06-30 11:13:06 51°26.71 2°52.54 19.316959 4.454111 33.166802 14.320563
2003-06-30 11:14:04 51°26.67 2°52.18 19.556322 4.451578 33.091772 14.522819
2003-06-30 11:15:04 51°26.63 2°51.82 19.397124 4.450734 33.097358 14.590238
2003-06-30 11:16:04 51°26.59 2°51.47 19.002112 4.464769 33.426707 13.073315
2003-06-30 11:17:04 51°26.55 2°51.12 18.736619 4.458127 33.592803 12.399127
2003-06-30 11:18:04 51°26.51 2°50.77 18.617773 4.457916 33.608763 12.365418
2003-06-30 11:19:04 51°26.47 2°50.42 18.89038 4.458549 33.636013 12.331708
2003-06-30 11:20:04 51°26.43 2°50.07 18.840576 4.460449 33.674592 11.893486
2003-06-30 11:21:04 51°26.36 2°49.73 18.76669 4.45739 33.661803 11.185589
2003-06-30 11:22:04 51°26.28 2°49.4 18.768255 4.458234 33.674282 10.140597
2003-06-30 11:23:04 51°26.19 2°49.07 18.729326 4.461187 33.697468 8.960768
2003-06-30 11:24:04 51°26.1 2°48.76 18.831442 4.460765 33.691523 8.185452
2003-06-30 11:25:04 51°26.03 2°48.55 18.793784 4.462137 33.710847 7.848358
2003-06-30 11:26:04 51°25.99 2°48.48 18.826258 4.459922 33.694495 6.769657
2003-06-30 11:27:04 51°25.97 2°48.46 18.719971 4.462243 33.714714 9.028187
2003-06-30 11:28:04 51°25.96 2°48.45 18.517575 4.462032 33.720071 10.208016
2003-06-30 11:29:04 51°25.95 2°48.45 18.753427 4.462876 33.722447 10.342853
2003-06-30 11:30:04 51°25.95 2°48.44 18.781432 4.46277 33.723936 10.477691
2003-06-30 11:31:04 51°25.94 2°48.44 18.611706 4.463192 33.732863 10.713657
2003-06-30 11:32:04 51°25.94 2°48.44 18.57302 4.461293 33.719778 10.983332
2003-06-30 11:33:04 51°25.93 2°48.43 18.602872 4.462665 33.733166 11.08446
2003-06-30 11:34:04 51°25.93 2°48.43 18.905096 4.462348 33.73168 11.050751
2003-06-30 11:35:06 51°25.93 2°48.43 18.800617 4.463192 33.742991 11.151879
2003-06-30 11:36:04 51°25.93 2°48.44 18.699486 4.463403 33.744776 11.151879
2003-06-30 11:37:04 51°25.89 2°48.4 18.603698 4.463931 33.748643 11.151879
2003-06-30 11:38:04 51°25.8 2°48.17 18.726153 4.464458 33.753703 10.376563
2003-06-30 11:39:04 51°25.7 2°47.86 18.591271 4.463614 33.753715 10.949623
2003-06-30 11:40:04 51°25.6 2°47.55 18.69693 4.46372 33.749242 11.151879
2003-06-30 11:41:04 51°25.5 2°47.24 18.579214 4.463298 33.75044 11.253007
2003-06-30 11:42:04 51°25.39 2°46.94 18.600107 4.467202 33.798404 11.286717
2003-06-30 11:43:04 51°25.29 2°46.63 18.86213 4.466463 33.798722 10.949623
2003-06-30 11:44:04 51°25.2 2°46.32 18.859334 4.467624 33.809746 10.477691
2003-06-30 11:45:04 51°25.1 2°46.02 18.544476 4.469734 33.838986 10.073178
2003-06-30 11:46:04 51°25.02 2°45.7 18.401791 4.470789 33.852716 9.904631
2003-06-30 11:47:04 51°24.93 2°45.38 18.605886 4.471527 33.870959 10.005759
2003-06-30 11:48:04 51°24.85 2°45.07 18.655362 4.472794 33.903296 10.140597
2003-06-30 11:49:04 51°24.77 2°44.76 18.57174 4.473849 33.924865 9.97205
2003-06-30 11:50:04 51°24.68 2°44.44 18.612449 4.473955 33.946816 9.567537
2003-06-30 11:51:04 51°24.6 2°44.13 18.507944 4.472795 33.97492 9.230443
2003-06-30 11:52:04 51°24.53 2°43.82 18.413506 4.47153 33.996153 8.927059
2003-06-30 11:53:04 51°24.45 2°43.5 18.670376 4.473428 34.005061 7.949486
2003-06-30 11:54:04 51°24.39 2°43.19 18.379721 4.475116 34.003109 7.241589
2003-06-30 11:55:04 51°24.32 2°42.87 18.727512 4.474272 33.983255 6.466272
2003-06-30 11:56:04 51°24.25 2°42.55 18.847282 4.46889 33.822861 8.084324
2003-06-30 11:57:04 51°24.18 2°42.23 18.635931 4.468255 33.720343 9.028187
2003-06-30 11:58:04 51°24.11 2°41.91 18.557861 4.479441 34.0097 6.60111
2003-06-30 11:59:04 51°24.05 2°41.59 18.578554 4.479441 34.029627 7.17417
2003-06-30 12:00:04 51°23.98 2°41.27 18.38908 4.481024 34.045504 7.646101
2003-06-30 12:01:06 51°23.9 2°40.94 18.638489 4.484188 34.05912 7.005623
2003-06-30 12:02:04 51°23.82 2°40.64 18.377774 4.486931 34.070955 7.342717
2003-06-30 12:03:04 51°23.74 2°40.33 18.520055 4.489358 34.084932 6.971913
2003-06-30 12:04:04 51°23.66 2°40.02 18.684314 4.492311 34.108228 6.837076
2003-06-30 12:05:04 51°23.59 2°39.71 18.483013 4.496637 34.163183 5.387571
2003-06-30 12:06:04 51°23.51 2°39.41 18.629741 4.500857 34.177246 5.286443
2003-06-30 12:07:04 51°23.43 2°39.11 18.688313 4.504443 34.188344 5.252734
2003-06-30 12:08:06 51°23.34 2°38.81 18.554185 4.50149 34.191119 4.91564
2003-06-30 12:09:04 51°23.26 2°38.52 18.648597 4.504549 34.174098 5.421281
2003-06-30 12:10:04 51°23.17 2°38.22 18.402122 4.503283 34.18939 5.353862
2003-06-30 12:11:04 51°23.08 2°37.92 18.485742 4.499486 34.225086 4.780802
2003-06-30 12:12:06 51°22.99 2°37.61 18.490332 4.490942 34.240577 4.612255
2003-06-30 12:13:04 51°22.9 2°37.32 18.539394 4.493579 34.238069 4.645965
2003-06-30 12:14:04 51°22.81 2°37.03 18.584954 4.495583 34.221647 4.544836
2003-06-30 12:15:04 51°22.73 2°36.73 18.510341 4.499697 34.218977 4.612255
2003-06-30 12:16:06 51°22.64 2°36.42 18.648721 4.501912 34.195315 5.050477
2003-06-30 12:17:04 51°22.55 2°36.14 18.72879 4.501069 34.223967 4.645965
2003-06-30 12:18:04 51°22.46 2°35.85 18.382123 4.495057 34.254332 4.443708
2003-06-30 12:19:06 51°22.35 2°35.55 18.661385 4.490099 34.240697 4.477418
2003-06-30 12:20:06 51°22.25 2°35.26 18.604978 4.498326 34.236501 4.848221
2003-06-30 12:21:04 51°22.13 2°35 18.290126 4.494845 34.243991 4.409999
2003-06-30 12:22:04 51°22.01 2°34.72 18.136195 4.492419 34.244639 4.409999
2003-06-30 12:23:06 51°21.89 2°34.44 18.562983 4.494318 34.24437 4.511127
2003-06-30 12:24:04 51°21.77 2°34.17 18.613481 4.495478 34.241463 4.544836
2003-06-30 12:25:04 51°21.66 2°33.89 18.598414 4.496533 34.233395 4.544836
2003-06-30 12:26:06 51°21.54 2°33.61 18.577893 4.49801 34.226498 4.612255
2003-06-30 12:27:04 51°21.42 2°33.35 18.598455 4.502861 34.176712 5.657247
2003-06-30 12:28:06 51°21.3 2°33.07 18.783038 4.516574 34.20601 5.758375
2003-06-30 12:29:04 51°21.19 2°32.81 18.91796 4.517102 34.187526 5.859503
2003-06-30 12:30:06 51°21.07 2°32.53 18.890626 4.518157 34.203716 5.657247
2003-06-30 12:31:06 51°20.95 2°32.26 18.683118 4.516047 34.203954 5.926922
2003-06-30 12:32:04 51°20.84 2°32 18.718694 4.51552 34.19948 5.758375
2003-06-30 12:33:04 51°20.72 2°31.74 18.597217 4.51668 34.215371 5.657247
2003-06-30 12:34:06 51°20.59 2°31.47 18.989305 4.51763 34.233715 5.151606
2003-06-30 12:35:06 51°20.47 2°31.21 18.799588 4.514993 34.225254 4.578546
2003-06-30 12:36:04 51°20.35 2°30.97 18.788308 4.514465 34.245014 4.207742
2003-06-30 12:37:06 51°20.24 2°30.72 18.855591 4.511407 34.252388 4.005486
2003-06-30 12:38:06 51°20.16 2°30.47 18.690498 4.509192 34.266968 4.241452
2003-06-30 12:39:04 51°20.1 2°30.22 18.965244 4.507609 34.272359 4.544836
2003-06-30 12:40:04 51°20.07 2°30.05 18.331664 4.506133 34.28658 4.477418
2003-06-30 12:41:06 51°20.08 2°30 18.611087 4.506238 34.289308 4.511127
2003-06-30 12:42:06 51°20.09 2°30.03 18.496864 4.505078 34.284295 4.645965
2003-06-30 12:43:04 51°20.1 2°30.06 18.551128 4.505395 34.300411 4.511127
2003-06-30 12:44:04 51°20.1 2°30.07 18.393055 4.504129 34.299992 4.477418
2003-06-30 12:45:06 51°20.08 2°30.09 18.587638 4.505395 34.296751 4.443708
2003-06-30 12:46:06 51°20.06 2°30.12 18.399721 4.502968 34.293757 4.241452
2003-06-30 12:47:04 51°20.03 2°30.15 18.293817 4.502547 34.300537 3.904358
2003-06-30 12:48:04 51°20.01 2°30.15 18.485783 4.502441 34.302691 3.634683
2003-06-30 12:49:06 51°20 2°30.12 18.576406 4.501597 34.310154 3.80323
2003-06-30 12:50:06 51°20.06 2°30.06 18.447606 4.500648 34.308773 3.76952
2003-06-30 12:51:04 51°20.15 2°30.17 18.651196 4.501492 34.306197 3.634683
2003-06-30 12:52:06 51°20.13 2°30.41 18.690828 4.501703 34.300666 3.836939
2003-06-30 12:53:06 51°20.01 2°30.68 18.411933 4.502019 34.302755 4.106614
2003-06-30 12:54:04 51°19.87 2°30.97 18.404026 4.501703 34.301887 4.207742
2003-06-30 12:55:04 51°19.73 2°31.26 18.582477 4.502335 34.281647 4.34258
2003-06-30 12:56:04 51°19.59 2°31.56 18.447565 4.506977 34.290114 4.544836
2003-06-30 12:57:04 51°19.45 2°31.85 18.585986 4.507821 34.293648 4.477418
2003-06-30 12:58:04 51°19.31 2°32.13 19.088419 4.517206 34.141401 7.039332
2003-06-30 12:59:04 51°19.18 2°32.42 19.221484 4.530287 34.139634 6.971913
2003-06-30 13:00:04 51°19.04 2°32.69 18.927986 4.534822 34.134171 7.275298
2003-06-30 13:01:04 51°18.89 2°32.96 18.796706 4.534928 34.139251 6.837076
2003-06-30 13:02:04 51°18.75 2°33.24 18.803581 4.539042 34.161363 6.5674
2003-06-30 13:03:04 51°18.6 2°33.52 19.197462 4.540625 34.179497 6.432563
2003-06-30 13:04:04 51°18.45 2°33.8 18.915905 4.536617 34.197869 5.994341
2003-06-30 13:05:04 51°18.3 2°34.08 19.148 4.530393 34.196984 5.792084
2003-06-30 13:06:04 51°18.16 2°34.36 18.743499 4.53071 34.227367 5.724665
2003-06-30 13:07:04 51°18.01 2°34.64 18.882774 4.529656 34.248001 5.4887
2003-06-30 13:08:04 51°17.87 2°34.94 18.798929 4.529023 34.266809 4.88193
2003-06-30 13:09:04 51°17.74 2°35.24 18.944502 4.533665 34.273493 5.016768
2003-06-30 13:10:04 51°17.6 2°35.54 18.834076 4.537462 34.261574 5.387571
2003-06-30 13:11:04 51°17.45 2°35.83 18.779703 4.540099 34.248322 5.45499
2003-06-30 13:12:04 51°17.27 2°36.06 18.718281 4.540837 34.244931 5.623537
2003-06-30 13:13:04 51°17.09 2°36.26 18.887995 4.542103 34.253218 5.016768
2003-06-30 13:14:04 51°16.91 2°36.47 19.392267 4.541995 34.098421 8.084324
2003-06-30 13:15:04 51°16.78 2°36.64 19.354909 4.554652 34.027184 8.252871
2003-06-30 13:16:04 51°16.72 2°36.76 19.227294 4.556974 34.051929 6.769657
2003-06-30 13:17:04 51°16.69 2°36.81 19.166962 4.556341 34.059056 7.679811
2003-06-30 13:18:04 51°16.64 2°36.78 19.0333 4.557712 34.0735 7.241589
2003-06-30 13:19:04 51°16.62 2°36.75 19.049668 4.558451 34.095685 6.870785
2003-06-30 13:20:04 51°16.63 2°36.75 19.158485 4.559084 34.095652 6.971913
2003-06-30 13:21:04 51°16.64 2°36.75 18.977193 4.560667 34.117214 7.17417
2003-06-30 13:22:04 51°16.65 2°36.75 19.181374 4.56035 34.106258 7.915777
2003-06-30 13:23:04 51°16.66 2°36.75 19.281524 4.558557 34.116742 8.421418
2003-06-30 13:24:04 51°16.66 2°36.76 19.085221 4.561089 34.123718 8.118033
2003-06-30 13:25:04 51°16.66 2°36.78 19.112028 4.560773 34.133534 8.084324
2003-06-30 13:26:04 51°16.66 2°36.79 19.15271 4.560878 34.139765 8.151742
2003-06-30 13:27:04 51°16.66 2°36.82 19.254987 4.561511 34.137349 8.320289
2003-06-30 13:28:04 51°16.66 2°36.84 19.166634 4.562566 34.133721 8.28658
2003-06-30 13:29:04 51°16.66 2°36.88 19.015492 4.562988 34.15508 8.016905
2003-06-30 13:30:04 51°16.66 2°36.91 19.112929 4.56109 34.170679 7.74723
2003-06-30 13:31:04 51°16.66 2°36.96 19.014712 4.561406 34.173931 7.780939
2003-06-30 13:32:04 51°16.67 2°37.01 19.085303 4.559824 34.192226 7.477554
2003-06-30 13:33:04 51°16.67 2°37.06 19.169459 4.559192 34.201227 7.241589
2003-06-30 13:34:04 51°16.68 2°37.13 19.188702 4.558559 34.20725 7.106751
2003-06-30 13:35:04 51°16.6 2°37.24 18.883226 4.558032 34.219545 6.870785
2003-06-30 13:36:04 51°16.43 2°37.36 19.207121 4.560246 34.194578 7.544973
2003-06-30 13:37:04 51°16.22 2°37.48 19.029074 4.55877 34.219778 6.837076
2003-06-30 13:38:04 51°16.02 2°37.6 19.221034 4.559192 34.199437 7.005623
2003-06-30 13:39:04 51°15.82 2°37.73 18.848639 4.560458 34.218435 6.735947
2003-06-30 13:40:04 51°15.61 2°37.85 19.261244 4.560986 34.255161 6.162888
2003-06-30 13:41:04 51°15.41 2°38.03 19.183789 4.566051 34.323568 4.88193
2003-06-30 13:42:04 51°15.21 2°38.2 19.073618 4.565946 34.348516 4.780802
2003-06-30 13:43:06 51°15 2°38.38 19.016231 4.56679 34.354427 4.747093
2003-06-30 13:44:04 51°14.81 2°38.54 19.101003 4.568689 34.373442 4.88193
2003-06-30 13:45:04 51°14.61 2°38.72 19.123256 4.565313 34.367251 4.780802
2003-06-30 13:46:04 51°14.42 2°38.88 18.854357 4.566474 34.395121 4.679674
2003-06-30 13:47:04 51°14.22 2°39.05 18.903123 4.5689 34.388468 4.780802
2003-06-30 13:48:04 51°14.01 2°39.2 19.494806 4.595695 34.36848 6.02805
2003-06-30 13:49:04 51°13.81 2°39.34 19.748834 4.61078 34.31444 5.859503
2003-06-30 13:50:04 51°13.6 2°39.47 19.397205 4.617532 34.335798 5.690956
2003-06-30 13:51:06 51°13.39 2°39.61 19.623155 4.615739 34.348093 5.589828
2003-06-30 13:52:04 51°13.19 2°39.74 19.178672 4.607089 34.389932 5.623537
2003-06-30 13:53:04 51°12.99 2°39.9 19.287288 4.598755 34.398902 6.432563
2003-06-30 13:54:06 51°12.79 2°40.08 19.267623 4.59137 34.398565 6.60111
2003-06-30 13:55:04 51°12.6 2°40.24 19.314712 4.587994 34.385189 6.870785
2003-06-30 13:56:04 51°12.41 2°40.41 19.34478 4.593586 34.387236 6.533691
2003-06-30 13:57:04 51°12.21 2°40.56 19.470592 4.604663 34.383334 6.196597
2003-06-30 13:58:06 51°12.04 2°40.7 19.394675 4.609515 34.361422 6.297725
2003-06-30 13:59:04 51°11.9 2°40.83 19.324069 4.604663 34.393469 6.634819
2003-06-30 14:00:04 51°11.76 2°40.96 18.904685 4.593058 34.399563 6.971913
2003-06-30 14:01:04 51°11.61 2°41.11 19.037649 4.586518 34.396752 7.106751
2003-06-30 14:02:04 51°11.47 2°41.32 19.336407 4.584408 34.394011 6.938204
2003-06-30 14:03:04 51°11.34 2°41.57 19.293624 4.589893 34.395746 7.578683
2003-06-30 14:04:04 51°11.28 2°41.89 19.410183 4.598755 34.383372 8.050614
2003-06-30 14:05:04 51°11.23 2°42.13 19.406184 4.608988 34.389137 7.983195
2003-06-30 14:06:04 51°11.17 2°42.14 19.493135 4.614579 34.386486 7.983195
2003-06-30 14:07:04 51°11.15 2°42.09 19.317572 4.618166 34.379605 7.74723
2003-06-30 14:08:04 51°11.13 2°42.08 19.733197 4.619538 34.376806 7.71352
2003-06-30 14:09:04 51°11.12 2°42.08 19.475932 4.621437 34.378409 7.511264
2003-06-30 14:10:04 51°11.11 2°42.09 19.450937 4.622386 34.380989 7.544973
2003-06-30 14:11:04 51°11.1 2°42.1 19.556974 4.621225 34.365389 7.612392
2003-06-30 14:12:04 51°11.09 2°42.12 19.395818 4.62418 34.382306 7.578683
2003-06-30 14:13:04 51°11.09 2°42.15 19.570818 4.624285 34.377261 7.74723
2003-06-30 14:14:04 51°11.09 2°42.18 19.507969 4.625868 34.384522 7.882067
2003-06-30 14:15:04 51°11.09 2°42.21 19.581321 4.625868 34.380376 7.814648
2003-06-30 14:16:04 51°11.09 2°42.24 19.355808 4.625023 34.371569 7.814648
2003-06-30 14:17:04 51°11.09 2°42.28 19.6585 4.627028 34.379384 7.882067
2003-06-30 14:18:04 51°11.1 2°42.32 19.527771 4.626817 34.377627 7.983195
2003-06-30 14:19:04 51°11.12 2°42.49 19.769826 4.628294 34.386376 8.050614
2003-06-30 14:20:04 51°11.17 2°42.85 19.74323 4.62861 34.376582 8.488836
2003-06-30 14:21:04 51°11.22 2°43.23 19.778838 4.629349 34.38273 7.882067
2003-06-30 14:22:04 51°11.27 2°43.61 19.516974 4.62861 34.373625 7.74723
2003-06-30 14:23:04 51°11.34 2°43.99 42.230969 4.626289 34.357261 7.477554
2003-06-30 14:24:04 51°11.4 2°44.36 44.421213 4.6265 34.351924 6.837076
2003-06-30 14:25:04 51°11.48 2°44.73 39.532759 4.63072 34.373445 6.398853
2003-06-30 14:26:04 51°11.55 2°45.1 39.877025 4.634307 34.346596 5.724665
2003-06-30 14:27:04 51°11.61 2°45.47 39.199393 4.638737 34.321567 5.522409
2003-06-30 14:28:04 51°11.69 2°45.84 39.523915 4.641586 34.301726 5.387571
2003-06-30 14:29:04 51°11.76 2°46.21 42.076514 4.642323 34.269757 5.4887
2003-06-30 14:30:04 51°11.83 2°46.58 40.433592 4.643167 34.232317 5.45499
2003-06-30 14:31:04 51°11.91 2°46.94 41.238939 4.641688 34.153159 5.4887
2003-06-30 14:32:04 51°12 2°47.3 40.501651 4.640843 34.109652 5.556118
2003-06-30 14:33:04 51°12.09 2°47.66 39.968118 4.640738 34.090831 5.657247
2003-06-30 14:34:04 51°12.19 2°48.01 40.721812 4.63926 34.059591 5.556118
2003-06-30 14:35:04 51°12.29 2°48.36 38.233861 4.637993 34.015133 5.556118
2003-06-30 14:36:04 51°12.4 2°48.71 40.565888 4.635144 33.981358 5.657247
2003-06-30 14:37:04 51°12.51 2°49.06 39.322772 4.629552 33.922786 5.690956
2003-06-30 14:38:04 51°12.61 2°49.4 39.37802 4.627441 33.885386 5.589828
2003-06-30 14:39:04 51°12.72 2°49.74 39.361111 4.623853 33.847368 5.387571
2003-06-30 14:40:04 51°12.84 2°50.08 39.979089 4.620582 33.797114 5.45499
2003-06-30 14:41:04 51°12.96 2°50.41 40.955542 4.617733 33.765785 5.151606
2003-06-30 14:42:04 51°13.08 2°50.74 41.099846 4.617416 33.765473 4.949349
2003-06-30 14:43:04 51°13.21 2°51.07 40.439773 4.614462 33.731587 5.050477
2003-06-30 14:44:04 51°13.35 2°51.39 41.347239 4.610347 33.688225 4.814512
2003-06-30 14:45:04 51°13.48 2°51.71 39.715832 4.602327 33.601052 5.016768
2003-06-30 14:46:04 51°13.62 2°52.02 39.858134 4.600322 33.570507 4.88193
2003-06-30 14:47:04 51°13.76 2°52.34 39.094993 4.594625 33.514343 4.91564
2003-06-30 14:48:04 51°13.89 2°52.67 38.950465 4.587028 33.43765 5.016768
2003-06-30 14:49:04 51°14.03 2°52.99 37.195031 4.583335 33.394012 5.117896
2003-06-30 14:50:04 51°14.16 2°53.31 38.727411 4.57922 33.352025 5.151606
2003-06-30 14:51:04 51°14.28 2°53.64 38.277385 4.572256 33.275092 4.949349
2003-06-30 14:52:04 51°14.37 2°53.97 38.500671 4.564131 33.19217 4.747093
2003-06-30 14:53:04 51°14.38 2°54.31 38.073241 4.555057 33.095519 4.645965
2003-06-30 14:54:04 51°14.38 2°54.65 38.841647 4.544612 32.995085 4.780802
2003-06-30 14:55:04 51°14.35 2°54.97 39.021661 4.533955 32.872678 5.825794
2003-06-30 14:56:04 51°14.28 2°55.23 38.245451 4.482471 32.41847 6.769657
2003-06-30 14:57:04 51°14.19 2°55.36 38.65504 4.368647 31.413738 7.646101
2003-06-30 14:58:04 51°14.11 2°55.42 30.783432 0.102933 0.563933 -0.477864
2003-06-30 14:59:04 51°14.05 2°55.47 31.761842 1.188334 6.924879 -0.511574
2003-06-30 15:00:04 51°13.97 2°55.54 32.314662 0.842756 4.755521 -0.545283
2003-06-30 15:01:04 51°13.87 2°55.62 32.43951 0.79342 4.460194 -0.545283
2003-06-30 15:02:04 51°13.77 2°55.69 29.842384 0.777639 4.369563 -0.578993